.
WxDataArchive / Data Records for 2012-11-18
2012-11-17 November 2012 2012-11-19

Data Records for Sunday, 18 November 2012

Time	Temp	Chill	HIndex	Humid	Dewpt	 Wind 	HiWind	WindDir	Rain 	Barom 
-----	----	-----	------	-----	-----	------	------	-------	-----	----- 
00:00	35.8	35.8	35.8	82	30.9	0	0	---	0.00	30.519 
00:05	35.6	35.6	35.6	82	30.7	0	0	---	0.00	30.519 
00:10	35.3	35.3	35.3	82	30.4	0	0	---	0.00	30.519 
00:15	35.3	35.3	35.3	83	30.7	0	0	---	0.00	30.513 
00:20	35.2	35.2	35.2	84	30.9	0	1	112	0.00	30.513 
00:25	35.2	35.2	35.2	84	30.9	0	0	---	0.00	30.513 
00:30	35.0	35.0	35.0	84	30.7	0	0	---	0.00	30.510 
00:35	35.0	35.0	35.0	85	31.0	0	1	112	0.00	30.510 
00:40	35.0	35.0	35.0	85	31.0	0	1	112	0.00	30.510 
00:45	34.9	34.9	34.9	85	30.9	0	0	---	0.00	30.508 
00:50	34.9	34.9	34.9	85	30.9	0	1	112	0.00	30.508 
00:55	34.9	34.9	34.9	85	30.9	0	0	---	0.00	30.508 
01:00	34.7	34.7	34.7	86	30.9	0	0	---	0.00	30.508 
01:05	34.4	34.4	34.4	86	30.7	0	0	---	0.00	30.508 
01:10	34.3	34.3	34.3	86	30.6	0	1	112	0.00	30.508 
01:15	34.4	34.4	34.4	87	30.9	0	1	112	0.00	30.498 
01:20	34.6	34.6	34.6	88	31.4	0	1	112	0.00	30.498 
01:25	34.7	34.7	34.7	88	31.5	0	0	---	0.00	30.498 
01:30	34.7	34.7	34.7	88	31.5	0	1	112	0.00	30.495 
01:35	34.9	34.9	34.9	88	31.7	0	4	112	0.00	30.495 
01:40	35.0	35.0	35.0	88	31.8	0	1	112	0.00	30.495 
01:45	35.0	35.0	35.0	88	31.8	0	2	112	0.00	30.491 
01:50	34.9	34.9	34.9	88	31.7	0	1	112	0.00	30.491 
01:55	34.9	34.9	34.9	89	32.0	0	1	112	0.00	30.491 
02:00	34.9	34.9	34.9	89	32.0	0	1	112	0.00	30.490 
02:05	34.7	34.7	34.7	89	31.8	0	0	---	0.00	30.490 
02:10	34.6	34.6	34.6	89	31.7	0	0	---	0.00	30.490 
02:15	34.4	34.4	34.4	89	31.5	0	0	---	0.00	30.490 
02:20	34.1	34.1	34.1	89	31.2	0	1	112	0.00	30.490 
02:25	34.1	34.1	34.1	90	31.5	0	2	112	0.00	30.490 
02:30	34.3	34.3	34.3	90	31.7	0	2	112	0.00	30.488 
02:35	34.1	34.1	34.1	90	31.5	0	0	---	0.00	30.488 
02:40	33.8	33.8	33.8	90	31.2	0	0	---	0.00	30.488 
02:45	33.5	33.5	33.5	90	30.9	0	0	---	0.00	30.494 
02:50	33.2	33.2	33.2	90	30.6	0	0	---	0.00	30.494 
02:55	32.9	32.9	32.9	90	30.3	0	0	---	0.00	30.494 
03:00	32.8	32.8	32.8	90	30.2	0	0	---	0.00	30.494 
03:05	32.8	32.8	32.8	91	30.5	0	1	112	0.00	30.494 
03:10	33.1	33.1	33.1	91	30.8	0	2	112	0.00	30.494 
03:15	33.2	33.2	33.2	91	30.9	0	2	112	0.00	30.492 
03:20	33.5	33.5	33.5	92	31.4	0	2	112	0.00	30.492 
03:25	33.5	33.5	33.5	92	31.4	0	0	---	0.00	30.492 
03:30	33.4	33.4	33.4	92	31.3	0	1	112	0.00	30.489 
03:35	33.4	33.4	33.4	92	31.3	0	1	112	0.00	30.489 
03:40	33.4	33.4	33.4	92	31.3	0	0	---	0.00	30.489 
03:45	33.1	33.1	33.1	92	31.0	0	0	---	0.00	30.483 
03:50	32.8	32.8	32.8	92	30.7	0	0	---	0.00	30.483 
03:55	32.5	32.5	32.5	92	30.4	0	0	---	0.00	30.483 
04:00	32.2	32.2	32.2	92	30.1	0	0	---	0.00	30.479 
04:05	32.1	32.1	32.1	92	30.0	0	0	---	0.00	30.479 
04:10	31.8	31.8	31.8	92	29.7	0	0	---	0.00	30.479 
04:15	31.6	31.6	31.6	92	29.5	0	0	---	0.00	30.484 
04:20	31.5	31.5	31.5	92	29.4	0	0	---	0.00	30.484 
04:25	31.3	31.3	31.3	92	29.3	0	0	---	0.00	30.484 
04:30	31.2	31.2	31.2	92	29.2	0	0	---	0.00	30.494 
04:35	31.0	31.0	31.0	92	29.0	0	0	---	0.00	30.494 
04:40	30.9	30.9	30.9	92	28.9	0	0	---	0.00	30.494 
04:45	30.7	30.7	30.7	92	28.7	0	0	---	0.00	30.495 
04:50	30.6	30.6	30.6	92	28.6	0	0	---	0.00	30.495 
04:55	30.4	30.4	30.4	92	28.4	0	0	---	0.00	30.495 
05:00	30.6	30.6	30.6	92	28.6	0	1	112	0.00	30.491 
05:05	31.2	31.2	31.2	93	29.4	0	2	112	0.00	30.491 
05:10	31.8	31.8	31.8	93	30.0	0	2	112	0.00	30.491 
05:15	32.4	32.4	32.4	93	30.6	0	1	112	0.00	30.503 
05:20	32.5	32.5	32.5	93	30.7	0	1	112	0.00	30.503 
05:25	32.5	32.5	32.5	93	30.7	0	0	---	0.00	30.503 
05:30	32.2	32.2	32.2	93	30.4	0	0	---	0.00	30.502 
05:35	32.1	32.1	32.1	93	30.3	0	0	---	0.00	30.502 
05:40	31.8	31.8	31.8	93	30.0	0	0	---	0.00	30.502 
05:45	31.5	31.5	31.5	93	29.7	0	0	---	0.00	30.506 
05:50	31.3	31.3	31.3	93	29.5	0	0	---	0.00	30.506 
05:55	31.2	31.2	31.2	93	29.4	0	0	---	0.00	30.506 
06:00	30.9	30.9	30.9	93	29.1	0	0	---	0.00	30.505 
06:05	30.6	30.6	30.6	93	28.8	0	0	---	0.00	30.505 
06:10	30.4	30.4	30.4	93	28.6	0	0	---	0.00	30.505 
06:15	30.1	30.1	30.1	93	28.3	0	0	---	0.00	30.509 
06:20	30.0	30.0	30.0	93	28.2	0	0	---	0.00	30.509 
06:25	30.0	30.0	30.0	93	28.2	0	0	---	0.00	30.509 
06:30	30.0	30.0	30.0	93	28.2	0	0	---	0.00	30.508 
06:35	30.0	30.0	30.0	93	28.2	0	0	---	0.00	30.508 
06:40	29.8	29.8	29.8	93	28.0	0	0	---	0.00	30.508 
06:45	29.8	29.8	29.8	93	28.0	0	0	---	0.00	30.508 
06:50	29.8	29.8	29.8	93	28.0	0	0	---	0.00	30.508 
06:55	29.7	29.7	29.7	93	27.9	0	0	---	0.00	30.508 
07:00	29.8	29.8	29.8	93	28.0	0	1	112	0.00	30.502 
07:05	30.1	30.1	30.1	94	28.6	0	2	112	0.00	30.502 
07:10	30.4	30.4	30.4	94	28.9	0	2	112	0.00	30.502 
07:15	30.3	30.3	30.3	93	28.5	0	1	112	0.00	30.500 
07:20	30.0	30.0	30.0	93	28.2	0	1	112	0.00	30.500 
07:25	29.8	29.8	29.8	93	28.0	0	1	112	0.00	30.500 
07:30	29.5	29.5	29.5	93	27.7	1	3	112	0.00	30.501 
07:35	29.3	29.3	29.3	93	27.5	1	2	112	0.00	30.501 
07:40	29.0	29.0	29.0	93	27.2	0	3	112	0.00	30.501 
07:45	28.7	28.7	28.7	93	26.9	1	2	112	0.00	30.500 
07:50	28.5	28.5	28.5	93	26.7	0	2	112	0.00	30.500 
07:55	28.4	28.4	28.4	93	26.6	0	1	112	0.00	30.500 
08:00	28.4	28.4	28.4	93	26.6	1	1	112	0.00	30.500 
08:05	28.2	28.2	28.2	94	26.7	0	2	112	0.00	30.500 
08:10	28.4	28.4	28.4	94	26.9	0	2	112	0.00	30.500 
08:15	28.5	28.5	28.5	94	27.0	1	3	112	0.00	30.498 
08:20	28.8	28.8	28.8	94	27.3	0	1	112	0.00	30.498 
08:25	29.0	29.0	29.0	94	27.5	0	0	---	0.00	30.498 
08:30	29.4	29.4	29.4	94	27.9	0	1	112	0.00	30.506 
08:35	29.5	29.5	29.5	94	28.0	0	1	112	0.00	30.506 
08:40	29.5	29.5	29.5	94	28.0	0	0	---	0.00	30.506 
08:45	29.7	29.7	29.7	94	28.2	0	1	112	0.00	30.508 
08:50	30.0	30.0	30.0	94	28.5	0	1	112	0.00	30.508 
08:55	30.3	30.3	30.3	94	28.8	0	1	112	0.00	30.508 
09:00	30.7	30.7	30.7	95	29.4	1	3	112	0.00	30.504 
09:05	31.3	31.3	31.3	95	30.0	0	2	112	0.00	30.504 
09:10	31.8	31.8	31.8	95	30.5	1	3	112	0.00	30.504 
09:15	32.2	32.2	32.2	95	30.9	0	2	112	0.00	30.503 
09:20	32.7	32.7	32.7	95	31.4	1	3	112	0.00	30.503 
09:25	32.8	32.8	32.8	95	31.5	1	4	112	0.00	30.503 
09:30	33.2	33.2	33.2	94	31.7	1	4	112	0.00	30.505 
09:35	33.4	33.4	33.4	94	31.9	0	2	112	0.00	30.505 
09:40	33.7	33.7	33.7	94	32.2	0	1	112	0.00	30.505 
09:45	34.1	34.1	34.1	94	32.6	1	3	112	0.00	30.506 
09:50	34.6	34.6	34.6	93	32.8	0	4	112	0.00	30.506 
09:55	34.7	34.7	34.7	93	32.9	1	5	112	0.00	30.506 
10:00	35.2	35.2	35.2	92	33.1	1	3	112	0.00	30.501 
10:05	35.6	35.6	35.6	92	33.5	1	3	112	0.00	30.501 
10:10	36.0	36.0	36.0	91	33.6	0	2	112	0.00	30.501 
10:15	36.5	36.5	36.5	90	33.9	1	3	112	0.00	30.500 
10:20	36.8	36.8	36.8	89	33.9	0	3	112	0.00	30.500 
10:25	37.2	37.2	37.2	88	34.0	1	3	112	0.00	30.500 
10:30	37.5	37.5	37.5	87	34.0	1	3	112	0.00	30.499 
10:35	37.9	37.9	37.9	86	34.1	0	3	112	0.00	30.499 
10:40	38.3	38.3	38.3	86	34.5	0	2	112	0.00	30.499 
10:45	38.9	38.9	38.9	85	34.8	0	3	112	0.00	30.501 
10:50	39.3	39.3	39.3	83	34.6	1	4	112	0.00	30.501 
10:55	39.6	39.6	39.6	82	34.6	0	2	112	0.00	30.501 
11:00	40.1	40.1	40.1	81	34.7	1	3	112	0.00	30.499 
11:05	40.3	40.3	40.3	79	34.3	2	4	90	0.00	30.499 
11:10	40.6	40.6	40.6	79	34.6	1	3	90	0.00	30.499 
11:15	41.1	41.1	41.1	79	35.1	2	4	90	0.00	30.498 
11:20	41.5	41.5	41.5	78	35.2	2	4	90	0.00	30.498 
11:25	41.8	41.8	41.8	78	35.5	2	4	90	0.00	30.498 
11:30	42.2	42.2	42.2	77	35.5	1	3	90	0.00	30.489 
11:35	42.3	42.3	42.3	77	35.6	1	4	90	0.00	30.489 
11:40	42.6	42.6	42.6	77	35.9	1	2	90	0.00	30.489 
11:45	42.9	42.9	42.9	75	35.5	1	4	90	0.00	30.483 
11:50	43.3	43.3	43.3	73	35.2	1	4	90	0.00	30.483 
11:55	43.8	43.8	43.8	73	35.7	1	3	90	0.00	30.483 
12:00	44.1	44.1	44.1	73	36.0	1	4	90	0.00	30.469 
12:05	44.3	44.3	44.3	76	37.2	0	3	90	0.00	30.469 
12:10	44.8	44.8	44.8	70	35.6	2	5	90	0.00	30.469 
12:15	45.1	45.1	45.1	69	35.5	1	4	90	0.00	30.461 
12:20	45.4	45.4	45.4	68	35.5	2	4	90	0.00	30.461 
12:25	45.8	45.8	45.8	68	35.8	1	4	90	0.00	30.461 
12:30	46.4	46.4	46.4	68	36.4	2	5	90	0.00	30.451 
12:35	46.5	46.5	46.5	66	35.8	1	4	90	0.00	30.451 
12:40	47.0	47.0	47.0	66	36.2	1	4	90	0.00	30.451 
12:45	47.3	47.3	47.3	65	36.1	1	3	90	0.00	30.447 
12:50	47.6	47.6	47.6	66	36.8	1	3	90	0.00	30.447 
12:55	48.0	48.0	48.0	63	36.0	1	5	90	0.00	30.447 
13:00	48.3	48.3	48.3	62	35.9	2	4	90	0.00	30.444 
13:05	48.5	48.5	48.5	62	36.1	2	4	90	0.00	30.444 
13:10	48.9	48.9	48.9	60	35.6	2	5	90	0.00	30.444 
13:15	49.1	49.1	49.1	60	35.8	2	5	112	0.00	30.436 
13:20	49.4	49.4	49.4	60	36.1	2	5	90	0.00	30.436 
13:25	49.5	49.5	49.5	58	35.3	2	7	90	0.00	30.436 
13:30	49.6	49.6	49.6	58	35.4	2	5	90	0.00	30.432 
13:35	49.8	49.8	49.8	58	35.6	1	4	90	0.00	30.432 
13:40	50.1	50.1	50.1	57	35.5	1	3	90	0.00	30.432 
13:45	50.4	50.4	50.4	55	34.8	1	4	90	0.00	30.429 
13:50	50.5	50.5	50.5	55	34.9	2	4	90	0.00	30.429 
13:55	50.7	50.7	50.7	55	35.1	1	5	90	0.00	30.429 
14:00	50.8	50.8	50.8	54	34.8	2	5	90	0.00	30.425 
14:05	51.0	51.0	51.0	53	34.5	1	3	90	0.00	30.425 
14:10	51.3	51.3	51.3	53	34.8	2	4	90	0.00	30.425 
14:15	51.4	51.4	51.4	54	35.3	1	4	90	0.00	30.420 
14:20	51.6	51.6	51.6	53	35.0	2	4	90	0.00	30.420 
14:25	51.7	51.7	51.7	53	35.1	1	5	90	0.00	30.420 
14:30	51.7	51.7	51.7	52	34.6	1	4	90	0.00	30.416 
14:35	51.7	51.7	51.7	53	35.1	1	4	90	0.00	30.416 
14:40	51.7	51.7	51.7	54	35.6	1	4	90	0.00	30.416 
14:45	51.9	51.9	51.9	53	35.3	1	4	90	0.00	30.416 
14:50	51.9	51.9	51.9	51	34.3	1	3	90	0.00	30.416 
14:55	52.0	52.0	52.0	52	34.9	1	3	68	0.00	30.416 
15:00	52.2	52.2	52.2	50	34.1	2	4	68	0.00	30.416 
15:05	52.2	52.2	52.2	50	34.1	2	5	68	0.00	30.416 
15:10	52.3	52.3	52.3	50	34.2	2	5	90	0.00	30.416 
15:15	52.3	52.3	52.3	50	34.2	1	3	90	0.00	30.415 
15:20	52.5	52.5	52.5	50	34.4	1	4	112	0.00	30.415 
15:25	52.5	52.5	52.5	50	34.4	1	4	112	0.00	30.415 
15:30	52.5	52.5	52.5	49	33.9	2	4	112	0.00	30.414 
15:35	52.5	52.5	52.5	49	33.9	2	5	90	0.00	30.414 
15:40	52.5	52.5	52.5	50	34.4	1	5	90	0.00	30.414 
15:45	52.3	52.3	52.3	50	34.2	2	5	90	0.00	30.409 
15:50	52.3	52.3	52.3	49	33.7	2	5	90	0.00	30.409 
15:55	52.3	52.3	52.3	48	33.2	2	5	90	0.00	30.409 
16:00	52.3	52.3	52.3	50	34.2	1	4	90	0.00	30.411 
16:05	52.2	52.2	52.2	50	34.1	1	3	90	0.00	30.411 
16:10	52.2	52.2	52.2	47	32.6	2	5	90	0.00	30.411 
16:15	52.2	52.2	52.2	48	33.1	1	3	68	0.00	30.416 
16:20	52.0	52.0	52.0	48	32.9	1	4	68	0.00	30.416 
16:25	51.9	51.9	51.9	49	33.3	1	3	68	0.00	30.416 
16:30	51.7	51.7	51.7	50	33.7	1	3	68	0.00	30.414 
16:35	51.6	51.6	51.6	50	33.6	1	2	68	0.00	30.414 
16:40	51.3	51.3	51.3	50	33.3	1	3	68	0.00	30.414 
16:45	51.0	51.0	51.0	51	33.5	0	1	68	0.00	30.414 
16:50	50.7	50.7	50.7	52	33.7	0	1	68	0.00	30.414 
16:55	50.2	50.2	50.2	53	33.7	0	1	68	0.00	30.414 
17:00	49.8	49.8	49.8	54	33.8	0	1	68	0.00	30.417 
17:05	49.4	49.4	49.4	54	33.5	0	0	---	0.00	30.417 
17:10	48.8	48.8	48.8	55	33.4	0	0	---	0.00	30.417 
17:15	48.0	48.0	48.0	56	33.1	0	0	---	0.00	30.419 
17:20	47.6	47.6	47.6	57	33.1	0	0	---	0.00	30.419 
17:25	47.0	47.0	47.0	58	33.0	0	0	---	0.00	30.419 
17:30	46.4	46.4	46.4	58	32.4	0	0	---	0.00	30.421 
17:35	46.0	46.0	46.0	59	32.5	0	0	---	0.00	30.421 
17:40	45.5	45.5	45.5	61	32.8	0	0	---	0.00	30.421 
17:45	45.1	45.1	45.1	61	32.5	0	0	---	0.00	30.422 
17:50	44.6	44.6	44.6	61	32.0	0	0	---	0.00	30.422 
17:55	44.1	44.1	44.1	62	31.9	0	0	---	0.00	30.422 
18:00	43.6	43.6	43.6	62	31.5	0	0	---	0.00	30.424 
18:05	43.2	43.2	43.2	63	31.5	0	0	---	0.00	30.424 
18:10	42.8	42.8	42.8	64	31.5	0	0	---	0.00	30.424 
18:15	42.3	42.3	42.3	65	31.4	0	0	---	0.00	30.428 
18:20	42.2	42.2	42.2	65	31.3	0	0	---	0.00	30.428 
18:25	42.2	42.2	42.2	65	31.3	0	0	---	0.00	30.428 
18:30	42.3	42.3	42.3	65	31.4	0	0	---	0.00	30.426 
18:35	42.3	42.3	42.3	64	31.0	0	1	68	0.00	30.426 
18:40	42.2	42.2	42.2	64	30.9	0	0	---	0.00	30.426 
18:45	42.2	42.2	42.2	64	30.9	0	0	---	0.00	30.425 
18:50	42.2	42.2	42.2	64	30.9	0	0	---	0.00	30.425 
18:55	42.1	42.1	42.1	64	30.8	0	0	---	0.00	30.425 
19:00	41.9	41.9	41.9	64	30.6	0	0	---	0.00	30.427 
19:05	41.6	41.6	41.6	65	30.7	0	0	---	0.00	30.427 
19:10	41.5	41.5	41.5	65	30.6	0	0	---	0.00	30.427 
19:15	41.1	41.1	41.1	65	30.2	0	0	---	0.00	30.433 
19:20	40.8	40.8	40.8	65	30.0	0	0	---	0.00	30.433 
19:25	40.3	40.3	40.3	66	29.9	0	0	---	0.00	30.433 
19:30	39.9	39.9	39.9	67	29.8	0	0	---	0.00	30.436 
19:35	39.5	39.5	39.5	68	29.8	0	0	---	0.00	30.436 
19:40	39.3	39.3	39.3	69	30.0	0	0	---	0.00	30.436 
19:45	39.2	39.2	39.2	69	29.9	0	0	---	0.00	30.437 
19:50	39.1	39.1	39.1	70	30.2	0	0	---	0.00	30.437 
19:55	39.2	39.2	39.2	70	30.3	0	0	---	0.00	30.437 
20:00	39.5	39.5	39.5	70	30.5	0	0	---	0.00	30.439 
20:05	39.6	39.6	39.6	70	30.6	0	0	---	0.00	30.439 
20:10	39.6	39.6	39.6	70	30.6	0	0	---	0.00	30.439 
20:15	39.8	39.8	39.8	70	30.8	0	0	---	0.00	30.439 
20:20	39.6	39.6	39.6	69	30.3	0	0	---	0.00	30.439 
20:25	39.5	39.5	39.5	70	30.5	0	0	---	0.00	30.439 
20:30	39.2	39.2	39.2	70	30.3	0	0	---	0.00	30.438 
20:35	38.9	38.9	38.9	70	30.0	0	0	---	0.00	30.438 
20:40	38.6	38.6	38.6	71	30.0	0	0	---	0.00	30.438 
20:45	38.3	38.3	38.3	72	30.1	0	0	---	0.00	30.441 
20:50	38.0	38.0	38.0	73	30.1	0	0	---	0.00	30.441 
20:55	38.0	38.0	38.0	74	30.5	0	1	68	0.00	30.441 
21:00	38.3	38.3	38.3	74	30.8	0	3	68	0.00	30.440 
21:05	38.9	38.9	38.9	73	31.0	1	3	68	0.00	30.440 
21:10	39.8	39.8	39.8	71	31.2	1	3	68	0.00	30.440 
21:15	40.2	40.2	40.2	70	31.2	1	4	68	0.00	30.427 
21:20	40.6	40.6	40.6	69	31.2	1	3	68	0.00	30.427 
21:25	40.6	40.6	40.6	69	31.2	1	4	68	0.00	30.427 
21:30	40.6	40.6	40.6	70	31.6	1	4	68	0.00	30.429 
21:35	40.6	40.6	40.6	70	31.6	1	2	68	0.00	30.429 
21:40	40.3	40.3	40.3	71	31.7	1	3	68	0.00	30.429 
21:45	40.2	40.2	40.2	72	31.9	1	2	68	0.00	30.427 
21:50	40.1	40.1	40.1	73	32.2	1	3	68	0.00	30.427 
21:55	39.8	39.8	39.8	73	31.9	0	3	68	0.00	30.427 
22:00	39.6	39.6	39.6	74	32.0	0	2	68	0.00	30.428 
22:05	39.3	39.3	39.3	74	31.7	0	1	68	0.00	30.428 
22:10	39.1	39.1	39.1	75	31.9	0	1	68	0.00	30.428 
22:15	38.8	38.8	38.8	76	31.9	0	0	---	0.00	30.423 
22:20	38.5	38.5	38.5	76	31.6	0	0	---	0.00	30.423 
22:25	38.0	38.0	38.0	76	31.1	0	0	---	0.00	30.423 
22:30	37.6	37.6	37.6	77	31.1	0	0	---	0.00	30.422 
22:35	37.3	37.3	37.3	77	30.8	0	0	---	0.00	30.422 
22:40	36.9	36.9	36.9	78	30.7	0	0	---	0.00	30.422 
22:45	36.6	36.6	36.6	78	30.4	0	0	---	0.00	30.422 
22:50	36.2	36.2	36.2	79	30.3	0	0	---	0.00	30.422 
22:55	35.9	35.9	35.9	80	30.3	0	0	---	0.00	30.422 
23:00	35.6	35.6	35.6	81	30.4	0	0	---	0.00	30.417 
23:05	35.3	35.3	35.3	81	30.1	0	0	---	0.00	30.417 
23:10	35.0	35.0	35.0	82	30.1	0	0	---	0.00	30.417 
23:15	34.7	34.7	34.7	81	29.5	0	0	---	0.00	30.408 
23:20	34.6	34.6	34.6	82	29.7	0	0	---	0.00	30.408 
23:25	34.4	34.4	34.4	83	29.8	0	0	---	0.00	30.408 
23:30	34.1	34.1	34.1	83	29.5	0	0	---	0.00	30.409 
23:35	34.0	34.0	34.0	84	29.7	0	0	---	0.00	30.409 
23:40	33.8	33.8	33.8	84	29.5	0	0	---	0.00	30.409 
23:45	33.7	33.7	33.7	84	29.4	0	0	---	0.00	30.405 
23:50	33.5	33.5	33.5	85	29.5	0	0	---	0.00	30.405 
23:55	33.2	33.2	33.2	85	29.2	0	0	---	0.00	30.405 

CoCoRaHS
IN-AL-39
A2 Web Hosting
Creative Commons License
GoDaddy
search engine by freefind advanced

loaded 2018-11-15 14:31:03 • last modified 2010-11-18 10:43:29
Privacy PolicyDisclaimer
• wx.awcolley.com is powered by PmWiki v.2002016 •
• all content (unless otherwise noted) © 2018 A W Colley